createdAt,value
2018-12-12T00:00:23.539Z,5.80
2018-12-12T00:02:52.071Z,6.23
2018-12-12T00:05:20.511Z,6.50
2018-12-12T00:07:48.914Z,6.23
2018-12-12T00:10:20.502Z,6.10
2018-12-12T00:12:49.647Z,6.10
2018-12-12T00:15:19.306Z,6.60
2018-12-12T00:17:48.575Z,6.00
2018-12-12T00:20:16.998Z,6.33
2018-12-12T00:22:45.429Z,6.27
2018-12-12T00:25:13.800Z,6.37
2018-12-12T00:27:42.305Z,6.97
2018-12-12T00:30:10.968Z,6.53
2018-12-12T00:32:39.480Z,6.50
2018-12-12T00:35:07.994Z,5.80
2018-12-12T00:37:36.494Z,7.40
2018-12-12T00:40:05.192Z,6.67
2018-12-12T00:42:33.712Z,6.50
2018-12-12T00:45:02.112Z,7.03
2018-12-12T00:47:30.543Z,6.93
2018-12-12T00:49:59.003Z,6.87
2018-12-12T00:52:27.392Z,6.47
2018-12-12T00:54:55.972Z,6.70
2018-12-12T00:57:24.864Z,6.87
2018-12-12T00:59:53.289Z,7.07
2018-12-12T01:02:21.701Z,6.50
2018-12-12T01:04:50.271Z,6.73
2018-12-12T01:07:18.811Z,7.37
2018-12-12T01:09:47.225Z,7.20
2018-12-12T01:12:15.749Z,7.40
2018-12-12T01:14:44.165Z,7.30
2018-12-12T01:17:12.577Z,7.27
2018-12-12T01:19:40.989Z,7.43
2018-12-12T01:22:09.387Z,7.23
2018-12-12T01:24:37.803Z,7.33
2018-12-12T01:27:06.352Z,7.53
2018-12-12T01:29:34.760Z,7.80
2018-12-12T01:32:03.331Z,7.77
2018-12-12T01:34:31.717Z,7.73
2018-12-12T01:37:00.436Z,7.83
2018-12-12T01:39:28.820Z,7.77
2018-12-12T01:41:57.228Z,8.20
2018-12-12T01:44:25.663Z,7.87
2018-12-12T01:46:54.360Z,7.60
2018-12-12T01:49:22.774Z,8.23
2018-12-12T01:51:51.193Z,8.53
2018-12-12T01:54:19.732Z,7.60
2018-12-12T01:56:48.118Z,7.10
2018-12-12T01:59:16.544Z,7.57
2018-12-12T02:01:44.938Z,8.57
2018-12-12T02:04:13.602Z,8.13
2018-12-12T02:06:42.010Z,7.97
2018-12-12T02:09:10.469Z,8.13
2018-12-12T02:11:38.867Z,8.73
2018-12-12T02:14:07.266Z,8.80
2018-12-12T02:16:35.677Z,8.07
2018-12-12T02:19:04.075Z,8.77
2018-12-12T02:21:32.495Z,8.80
2018-12-12T02:24:00.904Z,9.33
2018-12-12T02:26:29.327Z,8.87
2018-12-12T02:28:57.812Z,9.17
2018-12-12T02:31:26.252Z,9.43
2018-12-12T02:33:54.659Z,9.80
2018-12-12T02:36:23.081Z,10.60
2018-12-12T02:38:51.504Z,10.60
2018-12-12T02:41:19.916Z,10.60
2018-12-12T02:43:48.327Z,10.30
2018-12-12T02:46:16.713Z,10.77
2018-12-12T02:48:45.152Z,10.47
2018-12-12T02:51:13.574Z,11.40
2018-12-12T02:53:41.996Z,11.23
2018-12-12T02:56:10.421Z,11.30
2018-12-12T02:58:38.806Z,11.07
2018-12-12T03:01:07.251Z,11.40
2018-12-12T03:03:35.651Z,12.37
2018-12-12T03:06:04.083Z,11.97
2018-12-12T03:08:32.485Z,12.93
2018-12-12T03:11:00.994Z,12.73
2018-12-12T03:13:29.392Z,12.70
2018-12-12T03:15:57.855Z,13.03
2018-12-12T03:18:26.239Z,13.07
2018-12-12T03:20:54.656Z,12.93
2018-12-12T03:23:23.079Z,13.07
2018-12-12T03:25:51.465Z,13.23
2018-12-12T03:28:19.868Z,12.87
2018-12-12T03:30:48.275Z,13.57
2018-12-12T03:33:16.699Z,13.97
2018-12-12T03:35:45.085Z,13.40
2018-12-12T03:38:13.493Z,13.50
2018-12-12T03:40:42.316Z,13.80
2018-12-12T03:43:10.723Z,13.97
2018-12-12T03:45:39.127Z,14.27
2018-12-12T03:48:07.543Z,14.60
2018-12-12T03:50:35.967Z,14.13
2018-12-12T03:53:04.369Z,13.40
2018-12-12T03:55:32.791Z,14.27
2018-12-12T03:58:01.202Z,13.87
2018-12-12T04:00:29.638Z,13.53
2018-12-12T04:02:58.036Z,14.23
2018-12-12T04:05:26.552Z,13.33
2018-12-12T04:07:54.951Z,13.73
2018-12-12T04:10:23.368Z,13.87
2018-12-12T04:12:51.789Z,13.70
2018-12-12T04:15:20.334Z,13.90
2018-12-12T04:17:48.752Z,13.57
2018-12-12T04:20:17.159Z,13.67
2018-12-12T04:22:45.580Z,14.10
2018-12-12T04:25:14.033Z,13.40
2018-12-12T04:27:42.473Z,13.93
2018-12-12T04:30:10.982Z,12.90
2018-12-12T04:32:39.398Z,14.30
2018-12-12T04:35:08.693Z,13.93
2018-12-12T04:37:37.107Z,13.77
2018-12-12T04:40:06.102Z,13.40
2018-12-12T04:42:34.515Z,13.50
2018-12-12T04:45:02.930Z,13.20
2018-12-12T04:47:31.348Z,14.90
2018-12-12T04:49:59.788Z,14.03
2018-12-12T04:52:28.192Z,13.77
2018-12-12T04:54:56.607Z,13.97
2018-12-12T04:57:25.037Z,13.07
2018-12-12T04:59:53.456Z,13.27
2018-12-12T05:02:26.396Z,13.63
2018-12-12T05:04:55.780Z,12.63
2018-12-12T05:07:24.523Z,13.93
2018-12-12T05:09:53.146Z,13.80
2018-12-12T05:12:21.552Z,13.80
2018-12-12T05:14:49.969Z,13.70
2018-12-12T05:17:18.393Z,14.07
2018-12-12T05:19:46.787Z,13.03
2018-12-12T05:22:15.179Z,13.47
2018-12-12T05:24:43.569Z,13.33
2018-12-12T05:27:12.015Z,13.40
2018-12-12T05:29:40.457Z,13.17
2018-12-12T05:32:08.909Z,13.83
2018-12-12T05:34:37.324Z,12.80
2018-12-12T05:37:05.726Z,13.47
2018-12-12T05:39:34.135Z,12.77
2018-12-12T05:42:02.561Z,13.43
2018-12-12T05:44:30.996Z,13.37
2018-12-12T05:46:59.412Z,13.80
2018-12-12T05:49:27.900Z,13.53
2018-12-12T05:51:56.300Z,13.77
2018-12-12T05:54:24.714Z,13.63
2018-12-12T05:56:53.113Z,12.80
2018-12-12T05:59:21.525Z,13.97
2018-12-12T06:01:49.927Z,13.37
2018-12-12T06:04:18.372Z,14.83
2018-12-12T06:06:46.784Z,13.97
2018-12-12T06:09:15.170Z,14.53
2018-12-12T06:11:43.781Z,14.60
2018-12-12T06:14:12.174Z,14.50
2018-12-12T06:16:40.586Z,15.20
2018-12-12T06:19:08.991Z,14.77
2018-12-12T06:21:37.404Z,14.30
2018-12-12T06:24:05.928Z,14.27
2018-12-12T06:26:37.372Z,14.67
2018-12-12T06:29:04.903Z,14.83
2018-12-12T06:31:33.317Z,14.67
2018-12-12T06:34:01.699Z,14.27
2018-12-12T06:36:30.135Z,14.73
2018-12-12T06:38:58.533Z,15.43
2018-12-12T06:41:26.937Z,15.47
2018-12-12T06:43:55.347Z,14.43
2018-12-12T06:46:23.726Z,16.53
2018-12-12T06:48:52.191Z,14.53
2018-12-12T06:51:20.662Z,14.00
2018-12-12T06:53:49.180Z,13.47
2018-12-12T06:56:17.579Z,13.30
2018-12-12T06:58:45.993Z,13.93
2018-12-12T07:01:14.512Z,15.80
2018-12-12T07:03:42.958Z,14.40
2018-12-12T07:06:11.378Z,14.33
2018-12-12T07:08:39.783Z,14.80
2018-12-12T07:11:08.195Z,14.97
2018-12-12T07:13:36.667Z,14.80
2018-12-12T07:16:05.090Z,14.87
2018-12-12T07:18:33.503Z,14.53
2018-12-12T07:21:02.020Z,14.93
2018-12-12T07:23:30.400Z,16.50
2018-12-12T07:25:58.813Z,16.33
2018-12-12T07:28:27.241Z,17.43
2018-12-12T07:30:55.663Z,20.13
2018-12-12T07:33:24.070Z,20.77
2018-12-12T07:35:52.471Z,17.83
2018-12-12T07:38:20.918Z,17.33
2018-12-12T07:40:49.326Z,16.37
2018-12-12T07:43:17.747Z,15.80
2018-12-12T07:45:46.135Z,16.07
2018-12-12T07:48:14.543Z,14.50
2018-12-12T07:50:44.096Z,14.73
2018-12-12T07:53:12.723Z,15.00
2018-12-12T07:55:41.245Z,14.93
2018-12-12T07:58:09.667Z,14.67
2018-12-12T08:00:38.151Z,14.63
2018-12-12T08:03:06.717Z,15.00
2018-12-12T08:05:35.252Z,15.10
2018-12-12T08:08:03.769Z,15.03
2018-12-12T08:10:32.173Z,15.57
2018-12-12T08:13:00.619Z,16.57
2018-12-12T08:15:29.093Z,17.67
2018-12-12T08:17:57.482Z,18.50
2018-12-12T08:20:26.025Z,20.63
2018-12-12T08:22:55.636Z,21.57
2018-12-12T08:25:24.395Z,18.30
2018-12-12T08:27:52.807Z,16.67
2018-12-12T08:30:21.219Z,16.87
2018-12-12T08:32:49.737Z,17.47
2018-12-12T08:35:18.148Z,15.63
2018-12-12T08:37:46.559Z,15.03
2018-12-12T08:40:15.141Z,15.17
2018-12-12T08:42:43.545Z,15.70
2018-12-12T08:45:11.936Z,16.60
2018-12-12T08:47:40.368Z,16.27
2018-12-12T08:50:09.036Z,17.40
2018-12-12T08:52:37.484Z,16.67
2018-12-12T08:55:06.288Z,15.73
2018-12-12T08:57:34.838Z,16.27
2018-12-12T09:00:03.551Z,15.73
2018-12-12T09:02:32.092Z,16.80
2018-12-12T09:05:00.492Z,18.33
2018-12-12T09:07:28.904Z,16.03
2018-12-12T09:09:57.343Z,17.33
2018-12-12T09:12:25.749Z,16.37
2018-12-12T09:14:54.138Z,16.10
2018-12-12T09:17:22.554Z,17.30
2018-12-12T09:19:50.968Z,17.57
2018-12-12T09:22:19.382Z,15.73
2018-12-12T09:24:47.854Z,16.30
2018-12-12T09:27:16.236Z,17.57
2018-12-12T09:29:44.714Z,16.10
2018-12-12T09:32:13.117Z,16.17
2018-12-12T09:34:41.582Z,17.00
2018-12-12T09:37:10.000Z,16.97
2018-12-12T09:39:38.583Z,18.37
2018-12-12T09:42:07.148Z,18.43
2018-12-12T09:44:35.872Z,17.87
2018-12-12T09:47:04.500Z,15.50
2018-12-12T09:49:32.984Z,16.27
2018-12-12T09:52:01.480Z,16.97
2018-12-12T09:54:29.889Z,16.80
2018-12-12T09:56:58.326Z,15.90
2018-12-12T09:59:26.794Z,16.70
2018-12-12T10:01:55.194Z,18.20
2018-12-12T10:04:23.600Z,17.73
2018-12-12T10:06:52.004Z,17.53
2018-12-12T10:09:20.470Z,18.10
2018-12-12T10:11:48.927Z,17.37
2018-12-12T10:14:17.364Z,16.90
2018-12-12T10:16:45.779Z,17.40
2018-12-12T10:19:14.207Z,17.57
2018-12-12T10:21:42.805Z,18.57
2018-12-12T10:24:11.580Z,16.83
2018-12-12T10:26:40.129Z,15.83
2018-12-12T10:29:08.696Z,15.93
2018-12-12T10:31:37.130Z,16.50
2018-12-12T10:34:05.656Z,17.17
2018-12-12T10:36:35.262Z,17.20
2018-12-12T10:39:07.000Z,18.07
2018-12-12T10:41:36.180Z,16.97
2018-12-12T10:44:04.602Z,17.03
2018-12-12T10:46:33.034Z,17.20
2018-12-12T10:49:01.598Z,16.90
2018-12-12T10:51:30.054Z,17.70
2018-12-12T10:53:58.561Z,17.90
2018-12-12T10:56:27.005Z,17.50
2018-12-12T10:58:55.439Z,18.20
2018-12-12T11:01:29.707Z,19.00
2018-12-12T11:03:58.267Z,17.80
2018-12-12T11:06:26.677Z,18.57
2018-12-12T11:08:55.075Z,18.27
2018-12-12T11:11:23.459Z,18.30
2018-12-12T11:13:51.897Z,17.60
2018-12-12T11:16:20.280Z,18.07
2018-12-12T11:18:48.697Z,19.47
2018-12-12T11:21:17.245Z,17.60
2018-12-12T11:23:45.653Z,17.47
2018-12-12T11:26:14.189Z,18.27
2018-12-12T11:28:42.633Z,21.47
2018-12-12T11:31:11.033Z,19.63
2018-12-12T11:33:39.479Z,18.40
2018-12-12T11:36:08.018Z,18.10
2018-12-12T11:38:36.407Z,18.13
2018-12-12T11:41:05.472Z,18.13
2018-12-12T11:43:33.987Z,18.37
2018-12-12T11:46:02.796Z,18.53
2018-12-12T11:48:31.239Z,17.70
2018-12-12T11:50:59.648Z,17.53
2018-12-12T11:53:28.048Z,18.60
2018-12-12T11:55:56.480Z,18.30
2018-12-12T11:58:25.113Z,17.70
2018-12-12T12:00:53.531Z,18.10
2018-12-12T12:03:21.958Z,19.07
2018-12-12T12:05:50.356Z,18.17
2018-12-12T12:08:25.641Z,17.33
2018-12-12T12:10:54.052Z,18.60
2018-12-12T12:13:22.494Z,17.23
2018-12-12T12:15:50.903Z,18.00
2018-12-12T12:18:19.434Z,17.47
2018-12-12T12:20:47.847Z,18.27
2018-12-12T12:23:16.315Z,19.10
2018-12-12T12:25:44.732Z,20.00
2018-12-12T12:28:13.177Z,19.53
2018-12-12T12:30:41.573Z,18.33
2018-12-12T12:33:09.999Z,18.33
2018-12-12T12:35:38.423Z,17.30
2018-12-12T12:38:06.833Z,18.07
2018-12-12T12:40:35.265Z,18.93
2018-12-12T12:43:03.863Z,18.10
2018-12-12T12:45:32.443Z,17.77
2018-12-12T12:48:00.945Z,18.00
2018-12-12T12:50:29.531Z,17.63
2018-12-12T12:52:57.960Z,18.50
2018-12-12T12:55:26.489Z,17.93
2018-12-12T12:57:54.905Z,19.83
2018-12-12T13:00:23.331Z,17.27
2018-12-12T13:02:51.732Z,18.87
2018-12-12T13:05:20.143Z,19.00
2018-12-12T13:07:48.626Z,21.63
2018-12-12T13:10:17.200Z,19.30
2018-12-12T13:12:46.324Z,21.73
2018-12-12T13:15:15.247Z,18.27
2018-12-12T13:17:43.801Z,19.27
2018-12-12T13:20:12.414Z,18.80
2018-12-12T13:22:40.837Z,18.53
2018-12-12T13:25:09.382Z,18.37
2018-12-12T13:27:37.840Z,16.77
2018-12-12T13:30:06.521Z,17.90
2018-12-12T13:32:34.949Z,18.70
2018-12-12T13:35:03.377Z,17.40
2018-12-12T13:37:31.813Z,17.10
2018-12-12T13:40:00.295Z,18.27
2018-12-12T13:42:28.721Z,17.93
2018-12-12T13:44:57.137Z,18.23
2018-12-12T13:47:25.551Z,16.90
2018-12-12T13:49:55.225Z,17.43
2018-12-12T13:52:23.942Z,17.23
2018-12-12T13:54:52.369Z,17.73
2018-12-12T13:57:20.919Z,18.87
2018-12-12T13:59:49.479Z,17.50
2018-12-12T14:02:17.941Z,19.03
2018-12-12T14:04:46.351Z,17.50
2018-12-12T14:07:14.771Z,17.97
2018-12-12T14:09:43.198Z,16.80
2018-12-12T14:12:17.092Z,17.23
2018-12-12T14:14:42.139Z,16.60
2018-12-12T14:17:10.523Z,17.50
2018-12-12T14:19:45.393Z,17.03
2018-12-12T14:22:13.855Z,15.67
2018-12-12T14:24:42.266Z,15.73
2018-12-12T14:27:10.712Z,17.17
2018-12-12T14:29:39.173Z,15.20
2018-12-12T14:32:07.687Z,14.70
2018-12-12T14:34:36.228Z,15.83
2018-12-12T14:37:04.788Z,13.70
2018-12-12T14:39:33.200Z,13.77
2018-12-12T14:42:01.662Z,13.03
2018-12-12T14:44:30.064Z,11.87
2018-12-12T14:46:58.542Z,12.03
2018-12-12T14:49:27.026Z,12.93
2018-12-12T14:51:55.504Z,12.50
2018-12-12T14:54:23.977Z,13.00
2018-12-12T14:56:52.440Z,12.60
2018-12-12T14:59:20.841Z,12.40
2018-12-12T15:01:49.286Z,11.40
2018-12-12T15:04:17.716Z,11.77
2018-12-12T15:06:46.147Z,11.43
2018-12-12T15:09:14.609Z,11.77
2018-12-12T15:11:43.049Z,12.40
2018-12-12T15:14:11.563Z,12.97
2018-12-12T15:16:40.072Z,12.20
2018-12-12T15:19:08.671Z,11.83
2018-12-12T15:21:37.142Z,12.20
2018-12-12T15:24:05.591Z,12.90
2018-12-12T15:26:34.148Z,12.17
2018-12-12T15:29:02.562Z,12.60
2018-12-12T15:31:30.978Z,12.50
2018-12-12T15:33:59.413Z,12.30
2018-12-12T15:36:27.842Z,10.10
2018-12-12T15:38:56.336Z,11.37
2018-12-12T15:41:26.090Z,11.67
2018-12-12T15:43:54.533Z,14.07
2018-12-12T15:46:22.996Z,13.23
2018-12-12T15:48:51.420Z,15.87
2018-12-12T15:51:19.917Z,14.53
2018-12-12T15:53:48.327Z,16.63
2018-12-12T15:56:16.873Z,17.00
2018-12-12T15:58:48.642Z,14.27
2018-12-12T16:01:17.078Z,14.63
2018-12-12T16:03:45.547Z,15.37
2018-12-12T16:06:14.115Z,13.90
2018-12-12T16:08:42.555Z,12.23
2018-12-12T16:11:11.050Z,14.83
2018-12-12T16:13:39.538Z,14.57
2018-12-12T16:16:08.022Z,12.90
2018-12-12T16:18:36.563Z,21.57
2018-12-12T16:21:05.173Z,30.93
2018-12-12T16:23:33.665Z,32.40
2018-12-12T16:26:02.247Z,20.97
2018-12-12T16:28:30.771Z,16.63
2018-12-12T16:30:59.357Z,15.07
2018-12-12T16:33:27.867Z,14.97
2018-12-12T16:35:57.329Z,13.20
2018-12-12T16:38:25.865Z,13.17
2018-12-12T16:40:55.039Z,12.83
2018-12-12T16:43:23.643Z,13.97
2018-12-12T16:45:52.147Z,12.37
2018-12-12T16:48:21.169Z,13.37
2018-12-12T16:50:49.789Z,16.30
2018-12-12T16:53:18.369Z,13.83
2018-12-12T16:55:46.873Z,13.43
2018-12-12T16:58:15.401Z,12.63
2018-12-12T17:00:44.336Z,12.87
2018-12-12T17:03:17.101Z,13.50
2018-12-12T17:05:45.623Z,17.03
2018-12-12T17:08:14.655Z,19.87
2018-12-12T17:10:43.214Z,21.50
2018-12-12T17:13:11.791Z,20.63
2018-12-12T17:15:40.509Z,19.30
2018-12-12T17:18:09.535Z,15.93
2018-12-12T17:20:38.057Z,17.60
2018-12-12T17:23:06.521Z,17.80
2018-12-12T17:25:35.053Z,18.90
2018-12-12T17:28:04.567Z,17.90
2018-12-12T17:30:33.061Z,18.40
2018-12-12T17:33:01.899Z,16.80
2018-12-12T17:35:30.409Z,14.70
2018-12-12T17:37:58.910Z,17.83
2018-12-12T17:40:27.633Z,15.40
2018-12-12T17:42:56.590Z,16.30
2018-12-12T17:45:25.136Z,17.40
2018-12-12T17:47:53.672Z,16.77
2018-12-12T17:50:22.163Z,16.97
2018-12-12T17:52:50.687Z,16.37
2018-12-12T17:55:19.171Z,15.57
2018-12-12T17:57:50.130Z,14.90
2018-12-12T18:00:18.666Z,13.80
2018-12-12T18:02:47.242Z,13.00
2018-12-12T18:05:15.834Z,13.00
2018-12-12T18:07:44.423Z,13.57
2018-12-12T18:10:13.355Z,14.07
2018-12-12T18:12:42.484Z,13.03
2018-12-12T18:15:11.704Z,12.60
2018-12-12T18:17:40.212Z,12.40
2018-12-12T18:20:08.965Z,13.37
2018-12-12T18:22:37.506Z,13.07
2018-12-12T18:27:37.604Z,12.33
2018-12-12T18:30:07.277Z,12.03
2018-12-12T18:32:36.270Z,12.10
2018-12-12T18:35:05.134Z,13.20
2018-12-12T18:40:07.451Z,13.03
2018-12-12T18:42:36.623Z,14.40
2018-12-12T18:45:06.088Z,15.83
2018-12-12T18:47:34.633Z,15.23
2018-12-12T18:50:03.314Z,14.13
2018-12-12T18:52:32.354Z,14.90
2018-12-12T18:55:01.524Z,14.27
2018-12-12T18:57:31.692Z,14.37
2018-12-12T19:00:00.337Z,14.80
2018-12-12T19:02:29.164Z,15.20
2018-12-12T19:04:58.042Z,14.10
2018-12-12T19:07:26.557Z,14.43
2018-12-12T19:12:29.732Z,14.90
2018-12-12T19:15:02.836Z,15.60
2018-12-12T19:17:31.772Z,14.17
2018-12-12T19:20:02.754Z,14.80
2018-12-12T19:22:36.061Z,13.37
2018-12-12T19:25:06.191Z,14.70
2018-12-12T19:27:36.844Z,15.30
2018-12-12T19:30:07.410Z,14.00
2018-12-12T19:32:36.604Z,14.50
2018-12-12T19:35:06.454Z,14.67
2018-12-12T19:37:35.360Z,14.60
2018-12-12T19:40:04.879Z,15.80
2018-12-12T19:42:34.814Z,14.83
2018-12-12T19:45:03.762Z,15.00
2018-12-12T19:47:32.655Z,15.80
2018-12-12T19:50:01.907Z,14.87
2018-12-12T19:52:30.443Z,22.30
2018-12-12T19:54:59.515Z,20.77
2018-12-12T19:57:28.081Z,24.50
2018-12-12T19:59:57.719Z,24.10
2018-12-12T20:02:27.797Z,19.67
2018-12-12T20:04:57.650Z,19.33
2018-12-12T20:07:27.415Z,16.50
2018-12-12T20:12:28.737Z,15.43
2018-12-12T20:14:57.912Z,14.50
2018-12-12T20:17:27.844Z,14.57
2018-12-12T20:19:56.869Z,15.70
2018-12-12T20:22:25.463Z,16.50
2018-12-12T20:24:54.060Z,17.07
2018-12-12T20:27:22.799Z,17.10
2018-12-12T20:29:52.740Z,16.50
2018-12-12T20:32:22.464Z,19.20
2018-12-12T20:34:51.088Z,19.90
2018-12-12T20:37:20.948Z,19.60
2018-12-12T20:39:50.600Z,20.17
2018-12-12T20:42:19.942Z,20.23
2018-12-12T20:44:48.606Z,18.17
2018-12-12T20:47:18.416Z,18.67
2018-12-12T20:49:47.567Z,19.23
2018-12-12T20:52:16.386Z,17.67
2018-12-12T20:57:16.421Z,16.20
2018-12-12T20:59:45.920Z,16.90
2018-12-12T21:02:16.527Z,17.67
2018-12-12T21:04:45.487Z,17.30
2018-12-12T21:07:15.082Z,17.03
2018-12-12T21:09:43.790Z,16.53
2018-12-12T21:12:13.072Z,16.80
2018-12-12T21:17:14.189Z,15.60
2018-12-12T21:19:43.062Z,15.47
2018-12-12T21:22:12.001Z,14.87
2018-12-12T21:24:40.550Z,15.67
2018-12-12T21:27:09.503Z,15.10
2018-12-12T21:29:39.578Z,15.73
2018-12-12T21:32:08.155Z,15.60
2018-12-12T21:34:37.257Z,15.63
2018-12-12T21:37:06.050Z,16.57
2018-12-12T21:39:36.825Z,16.53
2018-12-12T21:42:05.414Z,15.83
2018-12-12T21:44:34.815Z,16.00
2018-12-12T21:47:03.335Z,16.50
2018-12-12T21:49:32.474Z,16.10
2018-12-12T21:52:00.978Z,15.40
2018-12-12T21:54:30.083Z,19.60
2018-12-12T21:56:58.678Z,15.50
2018-12-12T21:59:27.178Z,16.10
2018-12-12T22:01:56.446Z,15.60
2018-12-12T22:04:25.182Z,15.40
2018-12-12T22:06:53.766Z,15.50
2018-12-12T22:09:22.610Z,14.83
2018-12-12T22:11:51.163Z,15.37
2018-12-12T22:14:19.782Z,15.07
2018-12-12T22:16:48.660Z,15.30
2018-12-12T22:19:17.173Z,15.23
2018-12-12T22:21:45.664Z,13.53
2018-12-12T22:24:14.118Z,13.63
2018-12-12T22:26:42.594Z,14.10
2018-12-12T22:29:11.144Z,13.30
2018-12-12T22:31:39.571Z,9.53
2018-12-12T22:34:08.000Z,6.90
2018-12-12T22:36:36.450Z,8.27
2018-12-12T22:39:07.576Z,5.50
2018-12-12T22:41:36.138Z,6.50
2018-12-12T22:44:04.568Z,5.37
2018-12-12T22:46:33.061Z,6.23
2018-12-12T22:49:01.506Z,7.00
2018-12-12T22:51:29.937Z,5.13
2018-12-12T22:53:58.372Z,6.50
2018-12-12T22:56:26.814Z,5.70
2018-12-12T22:58:55.232Z,6.33
2018-12-12T23:01:25.212Z,6.47
2018-12-12T23:03:53.651Z,5.67
2018-12-12T23:06:22.193Z,5.63
2018-12-12T23:08:50.679Z,5.07
2018-12-12T23:11:19.122Z,5.33
2018-12-12T23:13:47.529Z,4.67
2018-12-12T23:16:15.936Z,4.23
2018-12-12T23:18:44.341Z,4.40
2018-12-12T23:21:12.805Z,4.50
2018-12-12T23:23:41.207Z,4.17
2018-12-12T23:26:09.616Z,4.53
2018-12-12T23:28:38.031Z,4.20
2018-12-12T23:31:06.461Z,4.20
2018-12-12T23:33:34.998Z,4.07
2018-12-12T23:36:03.437Z,3.63
2018-12-12T23:38:31.808Z,3.90
2018-12-12T23:41:00.205Z,3.90
2018-12-12T23:43:28.624Z,4.07
2018-12-12T23:45:57.139Z,4.43
2018-12-12T23:48:25.545Z,4.10
2018-12-12T23:50:53.936Z,4.37
2018-12-12T23:53:22.355Z,4.10
2018-12-12T23:55:50.761Z,4.17
2018-12-12T23:58:19.146Z,4.20
